sensor_id;sensor_type;location;lat;lon;timestamp;P1;durP1;ratioP1;P2;durP2;ratioP2
37873;SDS011;23709;48.078;11.684;2023-06-22T00:01:52;14.70;;;5.33;;
37873;SDS011;23709;48.078;11.684;2023-06-22T00:04:25;12.20;;;5.70;;
37873;SDS011;23709;48.078;11.684;2023-06-22T00:06:57;10.75;;;5.20;;
37873;SDS011;23709;48.078;11.684;2023-06-22T00:09:30;11.32;;;5.32;;
37873;SDS011;23709;48.078;11.684;2023-06-22T00:12:04;14.63;;;5.35;;
37873;SDS011;23709;48.078;11.684;2023-06-22T00:14:36;14.95;;;6.80;;
37873;SDS011;23709;48.078;11.684;2023-06-22T00:17:09;9.38;;;5.32;;
37873;SDS011;23709;48.078;11.684;2023-06-22T00:19:41;15.13;;;5.80;;
37873;SDS011;23709;48.078;11.684;2023-06-22T00:22:14;9.25;;;5.65;;
37873;SDS011;23709;48.078;11.684;2023-06-22T00:24:48;14.93;;;5.22;;
37873;SDS011;23709;48.078;11.684;2023-06-22T00:27:21;9.18;;;5.47;;
37873;SDS011;23709;48.078;11.684;2023-06-22T00:29:54;12.80;;;5.50;;
37873;SDS011;23709;48.078;11.684;2023-06-22T00:32:27;9.35;;;5.53;;
37873;SDS011;23709;48.078;11.684;2023-06-22T00:34:59;15.00;;;5.97;;
37873;SDS011;23709;48.078;11.684;2023-06-22T00:37:34;14.05;;;5.57;;
37873;SDS011;23709;48.078;11.684;2023-06-22T00:40:08;11.40;;;5.78;;
37873;SDS011;23709;48.078;11.684;2023-06-22T00:42:42;11.55;;;5.07;;
37873;SDS011;23709;48.078;11.684;2023-06-22T00:45:15;12.05;;;5.50;;
37873;SDS011;23709;48.078;11.684;2023-06-22T00:47:48;13.63;;;6.50;;
37873;SDS011;23709;48.078;11.684;2023-06-22T00:50:22;17.98;;;5.75;;
37873;SDS011;23709;48.078;11.684;2023-06-22T00:52:56;12.23;;;5.78;;
37873;SDS011;23709;48.078;11.684;2023-06-22T00:55:30;10.30;;;5.55;;
37873;SDS011;23709;48.078;11.684;2023-06-22T00:58:03;16.02;;;6.03;;
37873;SDS011;23709;48.078;11.684;2023-06-22T01:00:40;12.48;;;5.80;;
37873;SDS011;23709;48.078;11.684;2023-06-22T01:03:13;15.73;;;5.72;;
37873;SDS011;23709;48.078;11.684;2023-06-22T01:05:46;15.38;;;5.05;;
37873;SDS011;23709;48.078;11.684;2023-06-22T01:10:57;10.88;;;5.60;;
37873;SDS011;23709;48.078;11.684;2023-06-22T01:18:48;12.35;;;5.43;;
37873;SDS011;23709;48.078;11.684;2023-06-22T01:21:23;13.65;;;5.35;;
37873;SDS011;23709;48.078;11.684;2023-06-22T01:29:21;14.48;;;4.72;;
37873;SDS011;23709;48.078;11.684;2023-06-22T01:34:27;10.95;;;5.35;;
37873;SDS011;23709;48.078;11.684;2023-06-22T01:37:02;9.38;;;4.55;;
37873;SDS011;23709;48.078;11.684;2023-06-22T01:39:35;13.00;;;5.20;;
37873;SDS011;23709;48.078;11.684;2023-06-22T01:42:08;13.10;;;5.10;;
37873;SDS011;23709;48.078;11.684;2023-06-22T01:44:44;11.25;;;5.50;;
37873;SDS011;23709;48.078;11.684;2023-06-22T01:47:18;15.55;;;5.78;;
37873;SDS011;23709;48.078;11.684;2023-06-22T01:49:51;15.02;;;6.35;;
37873;SDS011;23709;48.078;11.684;2023-06-22T01:52:25;19.63;;;6.28;;
37873;SDS011;23709;48.078;11.684;2023-06-22T01:55:00;16.02;;;6.55;;
37873;SDS011;23709;48.078;11.684;2023-06-22T02:00:11;13.50;;;5.80;;
37873;SDS011;23709;48.078;11.684;2023-06-22T02:02:49;10.52;;;5.68;;
37873;SDS011;23709;48.078;11.684;2023-06-22T02:05:26;24.48;;;6.38;;
37873;SDS011;23709;48.078;11.684;2023-06-22T02:08:09;14.00;;;6.57;;
37873;SDS011;23709;48.078;11.684;2023-06-22T02:10:41;14.38;;;5.93;;
37873;SDS011;23709;48.078;11.684;2023-06-22T02:13:15;14.93;;;6.32;;
37873;SDS011;23709;48.078;11.684;2023-06-22T02:15:48;17.42;;;6.60;;
37873;SDS011;23709;48.078;11.684;2023-06-22T02:18:20;12.65;;;6.20;;
37873;SDS011;23709;48.078;11.684;2023-06-22T02:20:53;14.93;;;6.55;;
37873;SDS011;23709;48.078;11.684;2023-06-22T02:23:26;13.07;;;6.30;;
37873;SDS011;23709;48.078;11.684;2023-06-22T02:26:00;11.63;;;6.15;;
37873;SDS011;23709;48.078;11.684;2023-06-22T02:28:35;12.60;;;5.70;;
37873;SDS011;23709;48.078;11.684;2023-06-22T02:31:08;9.90;;;5.90;;
37873;SDS011;23709;48.078;11.684;2023-06-22T02:33:40;11.23;;;6.43;;
37873;SDS011;23709;48.078;11.684;2023-06-22T02:36:15;11.18;;;5.95;;
37873;SDS011;23709;48.078;11.684;2023-06-22T02:38:49;18.92;;;6.38;;
37873;SDS011;23709;48.078;11.684;2023-06-22T02:41:22;15.05;;;6.93;;
37873;SDS011;23709;48.078;11.684;2023-06-22T02:43:54;20.75;;;6.65;;
37873;SDS011;23709;48.078;11.684;2023-06-22T02:46:27;16.63;;;6.47;;
37873;SDS011;23709;48.078;11.684;2023-06-22T02:48:59;16.13;;;7.38;;
37873;SDS011;23709;48.078;11.684;2023-06-22T02:51:33;14.85;;;6.00;;
37873;SDS011;23709;48.078;11.684;2023-06-22T02:54:06;15.23;;;6.97;;
37873;SDS011;23709;48.078;11.684;2023-06-22T02:56:39;16.00;;;7.00;;
37873;SDS011;23709;48.078;11.684;2023-06-22T02:59:12;12.30;;;6.65;;
37873;SDS011;23709;48.078;11.684;2023-06-22T03:01:44;13.90;;;7.18;;
37873;SDS011;23709;48.078;11.684;2023-06-22T03:04:24;14.60;;;7.18;;
37873;SDS011;23709;48.078;11.684;2023-06-22T03:06:57;18.48;;;7.20;;
37873;SDS011;23709;48.078;11.684;2023-06-22T03:09:34;16.40;;;6.85;;
37873;SDS011;23709;48.078;11.684;2023-06-22T03:12:07;16.05;;;7.40;;
37873;SDS011;23709;48.078;11.684;2023-06-22T03:14:51;14.43;;;7.57;;
37873;SDS011;23709;48.078;11.684;2023-06-22T03:17:24;13.18;;;6.97;;
37873;SDS011;23709;48.078;11.684;2023-06-22T03:19:57;13.68;;;8.30;;
37873;SDS011;23709;48.078;11.684;2023-06-22T03:22:29;14.15;;;7.70;;
37873;SDS011;23709;48.078;11.684;2023-06-22T03:25:01;18.67;;;8.45;;
37873;SDS011;23709;48.078;11.684;2023-06-22T03:27:34;17.35;;;8.27;;
37873;SDS011;23709;48.078;11.684;2023-06-22T03:30:08;13.63;;;6.80;;
37873;SDS011;23709;48.078;11.684;2023-06-22T03:32:42;18.02;;;7.30;;
37873;SDS011;23709;48.078;11.684;2023-06-22T03:35:15;13.65;;;7.20;;
37873;SDS011;23709;48.078;11.684;2023-06-22T03:37:47;13.63;;;7.53;;
37873;SDS011;23709;48.078;11.684;2023-06-22T03:40:19;14.68;;;8.00;;
37873;SDS011;23709;48.078;11.684;2023-06-22T03:42:51;20.73;;;8.43;;
37873;SDS011;23709;48.078;11.684;2023-06-22T03:45:23;13.23;;;8.00;;
37873;SDS011;23709;48.078;11.684;2023-06-22T03:47:56;15.02;;;8.02;;
37873;SDS011;23709;48.078;11.684;2023-06-22T03:50:28;18.58;;;7.82;;
37873;SDS011;23709;48.078;11.684;2023-06-22T03:53:03;18.98;;;8.55;;
37873;SDS011;23709;48.078;11.684;2023-06-22T03:55:35;15.07;;;8.80;;
37873;SDS011;23709;48.078;11.684;2023-06-22T03:58:08;15.70;;;9.30;;
37873;SDS011;23709;48.078;11.684;2023-06-22T04:00:41;18.85;;;9.35;;
37873;SDS011;23709;48.078;11.684;2023-06-22T04:03:14;15.43;;;8.60;;
37873;SDS011;23709;48.078;11.684;2023-06-22T04:05:47;19.13;;;9.35;;
37873;SDS011;23709;48.078;11.684;2023-06-22T04:08:20;25.42;;;9.52;;
37873;SDS011;23709;48.078;11.684;2023-06-22T04:10:52;27.85;;;10.48;;
37873;SDS011;23709;48.078;11.684;2023-06-22T04:13:25;17.98;;;8.93;;
37873;SDS011;23709;48.078;11.684;2023-06-22T04:18:32;20.70;;;9.48;;
37873;SDS011;23709;48.078;11.684;2023-06-22T04:21:05;14.70;;;7.93;;
37873;SDS011;23709;48.078;11.684;2023-06-22T04:23:38;16.93;;;8.57;;
37873;SDS011;23709;48.078;11.684;2023-06-22T04:26:10;13.33;;;9.20;;
37873;SDS011;23709;48.078;11.684;2023-06-22T04:28:43;17.33;;;9.05;;
37873;SDS011;23709;48.078;11.684;2023-06-22T04:31:23;19.08;;;10.73;;
37873;SDS011;23709;48.078;11.684;2023-06-22T04:34:04;15.90;;;9.68;;
37873;SDS011;23709;48.078;11.684;2023-06-22T04:36:40;19.13;;;10.32;;
37873;SDS011;23709;48.078;11.684;2023-06-22T04:39:14;24.02;;;10.27;;
37873;SDS011;23709;48.078;11.684;2023-06-22T04:41:47;18.45;;;10.15;;
37873;SDS011;23709;48.078;11.684;2023-06-22T04:44:20;18.67;;;9.55;;
37873;SDS011;23709;48.078;11.684;2023-06-22T04:46:57;18.67;;;10.90;;
37873;SDS011;23709;48.078;11.684;2023-06-22T04:49:36;22.33;;;11.25;;
37873;SDS011;23709;48.078;11.684;2023-06-22T04:52:09;21.13;;;11.05;;
37873;SDS011;23709;48.078;11.684;2023-06-22T04:57:19;19.95;;;11.77;;
37873;SDS011;23709;48.078;11.684;2023-06-22T04:59:52;19.48;;;11.13;;
37873;SDS011;23709;48.078;11.684;2023-06-22T05:02:25;21.23;;;11.27;;
37873;SDS011;23709;48.078;11.684;2023-06-22T05:05:00;20.77;;;11.65;;
37873;SDS011;23709;48.078;11.684;2023-06-22T05:07:39;21.88;;;11.57;;
37873;SDS011;23709;48.078;11.684;2023-06-22T05:10:14;22.92;;;11.20;;
37873;SDS011;23709;48.078;11.684;2023-06-22T05:12:47;20.97;;;11.60;;
37873;SDS011;23709;48.078;11.684;2023-06-22T05:15:19;20.27;;;11.38;;
37873;SDS011;23709;48.078;11.684;2023-06-22T05:17:53;21.35;;;10.93;;
37873;SDS011;23709;48.078;11.684;2023-06-22T05:20:26;23.67;;;12.03;;
37873;SDS011;23709;48.078;11.684;2023-06-22T05:23:00;27.35;;;12.27;;
37873;SDS011;23709;48.078;11.684;2023-06-22T05:25:32;23.67;;;11.10;;
37873;SDS011;23709;48.078;11.684;2023-06-22T05:28:05;26.95;;;11.63;;
37873;SDS011;23709;48.078;11.684;2023-06-22T05:30:42;27.13;;;10.95;;
37873;SDS011;23709;48.078;11.684;2023-06-22T05:33:15;21.02;;;11.20;;
37873;SDS011;23709;48.078;11.684;2023-06-22T05:35:48;23.52;;;11.80;;
37873;SDS011;23709;48.078;11.684;2023-06-22T05:38:21;17.73;;;10.93;;
37873;SDS011;23709;48.078;11.684;2023-06-22T05:40:54;23.50;;;11.75;;
37873;SDS011;23709;48.078;11.684;2023-06-22T05:43:26;18.45;;;10.30;;
37873;SDS011;23709;48.078;11.684;2023-06-22T05:46:00;20.17;;;11.23;;
37873;SDS011;23709;48.078;11.684;2023-06-22T05:51:05;26.40;;;11.73;;
37873;SDS011;23709;48.078;11.684;2023-06-22T05:53:37;24.20;;;11.13;;
37873;SDS011;23709;48.078;11.684;2023-06-22T05:56:10;25.23;;;11.70;;
37873;SDS011;23709;48.078;11.684;2023-06-22T05:58:43;27.53;;;12.27;;
37873;SDS011;23709;48.078;11.684;2023-06-22T06:01:15;25.83;;;10.60;;
37873;SDS011;23709;48.078;11.684;2023-06-22T06:03:49;19.08;;;10.85;;
37873;SDS011;23709;48.078;11.684;2023-06-22T06:06:21;17.70;;;11.03;;
37873;SDS011;23709;48.078;11.684;2023-06-22T06:09:00;20.83;;;11.00;;
37873;SDS011;23709;48.078;11.684;2023-06-22T06:11:33;40.80;;;12.25;;
37873;SDS011;23709;48.078;11.684;2023-06-22T06:14:05;20.58;;;10.27;;
37873;SDS011;23709;48.078;11.684;2023-06-22T06:16:38;20.45;;;10.57;;
37873;SDS011;23709;48.078;11.684;2023-06-22T06:19:11;25.45;;;12.10;;
37873;SDS011;23709;48.078;11.684;2023-06-22T06:21:43;20.02;;;10.40;;
37873;SDS011;23709;48.078;11.684;2023-06-22T06:24:16;28.30;;;10.93;;
37873;SDS011;23709;48.078;11.684;2023-06-22T06:26:49;25.58;;;10.57;;
37873;SDS011;23709;48.078;11.684;2023-06-22T06:29:22;23.10;;;11.13;;
37873;SDS011;23709;48.078;11.684;2023-06-22T06:34:28;21.95;;;10.02;;
37873;SDS011;23709;48.078;11.684;2023-06-22T06:37:01;25.52;;;11.23;;
37873;SDS011;23709;48.078;11.684;2023-06-22T06:39:33;28.50;;;10.82;;
37873;SDS011;23709;48.078;11.684;2023-06-22T06:42:06;30.13;;;11.30;;
37873;SDS011;23709;48.078;11.684;2023-06-22T06:44:39;23.95;;;10.95;;
37873;SDS011;23709;48.078;11.684;2023-06-22T06:47:11;23.60;;;10.93;;
37873;SDS011;23709;48.078;11.684;2023-06-22T06:49:44;19.30;;;10.95;;
37873;SDS011;23709;48.078;11.684;2023-06-22T06:52:17;21.48;;;10.57;;
37873;SDS011;23709;48.078;11.684;2023-06-22T06:54:51;22.90;;;9.88;;
37873;SDS011;23709;48.078;11.684;2023-06-22T06:57:24;15.17;;;9.47;;
37873;SDS011;23709;48.078;11.684;2023-06-22T07:00:00;24.05;;;10.05;;
37873;SDS011;23709;48.078;11.684;2023-06-22T07:02:33;21.90;;;9.82;;
37873;SDS011;23709;48.078;11.684;2023-06-22T07:05:06;20.40;;;10.65;;
37873;SDS011;23709;48.078;11.684;2023-06-22T07:07:38;32.00;;;10.87;;
37873;SDS011;23709;48.078;11.684;2023-06-22T07:10:11;22.48;;;10.32;;
37873;SDS011;23709;48.078;11.684;2023-06-22T07:12:44;28.20;;;11.30;;
37873;SDS011;23709;48.078;11.684;2023-06-22T07:15:16;21.20;;;10.88;;
37873;SDS011;23709;48.078;11.684;2023-06-22T07:17:49;24.07;;;10.50;;
37873;SDS011;23709;48.078;11.684;2023-06-22T07:20:21;23.23;;;10.63;;
37873;SDS011;23709;48.078;11.684;2023-06-22T07:22:54;22.67;;;10.93;;
37873;SDS011;23709;48.078;11.684;2023-06-22T07:25:26;22.60;;;11.07;;
37873;SDS011;23709;48.078;11.684;2023-06-22T07:28:03;18.42;;;10.13;;
37873;SDS011;23709;48.078;11.684;2023-06-22T07:30:36;29.05;;;10.77;;
37873;SDS011;23709;48.078;11.684;2023-06-22T07:33:08;28.83;;;10.83;;
37873;SDS011;23709;48.078;11.684;2023-06-22T07:35:41;19.27;;;10.17;;
37873;SDS011;23709;48.078;11.684;2023-06-22T07:38:14;24.00;;;10.80;;
37873;SDS011;23709;48.078;11.684;2023-06-22T07:43:19;22.23;;;10.15;;
37873;SDS011;23709;48.078;11.684;2023-06-22T07:45:53;22.70;;;10.57;;
37873;SDS011;23709;48.078;11.684;2023-06-22T07:48:27;26.08;;;11.00;;
37873;SDS011;23709;48.078;11.684;2023-06-22T07:51:00;29.75;;;10.63;;
37873;SDS011;23709;48.078;11.684;2023-06-22T07:53:32;21.10;;;10.05;;
37873;SDS011;23709;48.078;11.684;2023-06-22T07:56:05;24.67;;;10.13;;
37873;SDS011;23709;48.078;11.684;2023-06-22T07:58:39;26.33;;;10.07;;
37873;SDS011;23709;48.078;11.684;2023-06-22T08:03:44;20.75;;;9.48;;
37873;SDS011;23709;48.078;11.684;2023-06-22T08:06:17;26.08;;;10.75;;
37873;SDS011;23709;48.078;11.684;2023-06-22T08:08:50;22.35;;;9.80;;
37873;SDS011;23709;48.078;11.684;2023-06-22T08:11:24;23.45;;;9.68;;
37873;SDS011;23709;48.078;11.684;2023-06-22T08:13:57;28.70;;;10.93;;
37873;SDS011;23709;48.078;11.684;2023-06-22T08:16:30;27.55;;;10.35;;
37873;SDS011;23709;48.078;11.684;2023-06-22T08:21:36;23.15;;;10.32;;
37873;SDS011;23709;48.078;11.684;2023-06-22T08:24:09;19.30;;;9.70;;
37873;SDS011;23709;48.078;11.684;2023-06-22T08:26:42;22.07;;;10.67;;
37873;SDS011;23709;48.078;11.684;2023-06-22T08:29:15;17.90;;;9.82;;
37873;SDS011;23709;48.078;11.684;2023-06-22T08:31:47;23.95;;;9.82;;
37873;SDS011;23709;48.078;11.684;2023-06-22T08:34:20;25.70;;;10.07;;
37873;SDS011;23709;48.078;11.684;2023-06-22T08:36:55;23.88;;;10.70;;
37873;SDS011;23709;48.078;11.684;2023-06-22T08:39:27;27.02;;;11.35;;
37873;SDS011;23709;48.078;11.684;2023-06-22T08:42:00;22.75;;;9.95;;
37873;SDS011;23709;48.078;11.684;2023-06-22T08:44:32;29.10;;;10.57;;
37873;SDS011;23709;48.078;11.684;2023-06-22T08:47:04;21.03;;;10.33;;
37873;SDS011;23709;48.078;11.684;2023-06-22T08:49:37;29.30;;;10.65;;
37873;SDS011;23709;48.078;11.684;2023-06-22T08:52:09;26.92;;;10.77;;
37873;SDS011;23709;48.078;11.684;2023-06-22T08:54:41;23.10;;;10.15;;
37873;SDS011;23709;48.078;11.684;2023-06-22T08:57:13;22.17;;;10.20;;
37873;SDS011;23709;48.078;11.684;2023-06-22T08:59:45;22.55;;;9.85;;
37873;SDS011;23709;48.078;11.684;2023-06-22T09:02:17;24.23;;;10.03;;
37873;SDS011;23709;48.078;11.684;2023-06-22T09:04:51;23.13;;;9.95;;
37873;SDS011;23709;48.078;11.684;2023-06-22T09:07:27;19.95;;;9.18;;
37873;SDS011;23709;48.078;11.684;2023-06-22T09:10:00;27.88;;;10.13;;
37873;SDS011;23709;48.078;11.684;2023-06-22T09:12:35;21.90;;;9.63;;
37873;SDS011;23709;48.078;11.684;2023-06-22T09:15:09;27.42;;;10.05;;
37873;SDS011;23709;48.078;11.684;2023-06-22T09:17:47;17.48;;;9.50;;
37873;SDS011;23709;48.078;11.684;2023-06-22T09:20:20;31.92;;;10.20;;
37873;SDS011;23709;48.078;11.684;2023-06-22T09:22:53;20.73;;;8.95;;
37873;SDS011;23709;48.078;11.684;2023-06-22T09:25:25;20.30;;;9.05;;
37873;SDS011;23709;48.078;11.684;2023-06-22T09:27:58;21.23;;;9.65;;
37873;SDS011;23709;48.078;11.684;2023-06-22T09:30:30;24.40;;;9.55;;
37873;SDS011;23709;48.078;11.684;2023-06-22T09:33:03;21.40;;;9.63;;
37873;SDS011;23709;48.078;11.684;2023-06-22T09:35:35;17.15;;;9.18;;
37873;SDS011;23709;48.078;11.684;2023-06-22T09:38:07;21.85;;;9.43;;
37873;SDS011;23709;48.078;11.684;2023-06-22T09:40:40;23.30;;;9.73;;
37873;SDS011;23709;48.078;11.684;2023-06-22T09:43:12;28.10;;;9.85;;
37873;SDS011;23709;48.078;11.684;2023-06-22T09:45:44;25.70;;;9.05;;
37873;SDS011;23709;48.078;11.684;2023-06-22T09:48:16;24.07;;;9.73;;
37873;SDS011;23709;48.078;11.684;2023-06-22T09:50:49;22.73;;;9.60;;
37873;SDS011;23709;48.078;11.684;2023-06-22T09:53:22;20.63;;;10.07;;
37873;SDS011;23709;48.078;11.684;2023-06-22T09:55:54;18.48;;;9.23;;
37873;SDS011;23709;48.078;11.684;2023-06-22T09:58:26;18.73;;;8.52;;
37873;SDS011;23709;48.078;11.684;2023-06-22T10:00:59;19.70;;;8.63;;
37873;SDS011;23709;48.078;11.684;2023-06-22T10:03:32;22.73;;;8.95;;
37873;SDS011;23709;48.078;11.684;2023-06-22T10:06:04;26.67;;;9.95;;
37873;SDS011;23709;48.078;11.684;2023-06-22T10:08:37;21.53;;;9.87;;
37873;SDS011;23709;48.078;11.684;2023-06-22T10:11:09;25.55;;;9.82;;
37873;SDS011;23709;48.078;11.684;2023-06-22T10:13:41;20.23;;;8.45;;
37873;SDS011;23709;48.078;11.684;2023-06-22T10:16:13;22.48;;;9.75;;
37873;SDS011;23709;48.078;11.684;2023-06-22T10:18:45;28.95;;;10.07;;
37873;SDS011;23709;48.078;11.684;2023-06-22T10:21:18;23.27;;;9.50;;
37873;SDS011;23709;48.078;11.684;2023-06-22T10:23:50;21.52;;;9.30;;
37873;SDS011;23709;48.078;11.684;2023-06-22T10:26:22;20.80;;;8.85;;
37873;SDS011;23709;48.078;11.684;2023-06-22T10:28:54;27.93;;;9.40;;
37873;SDS011;23709;48.078;11.684;2023-06-22T10:31:46;22.90;;;9.07;;
37873;SDS011;23709;48.078;11.684;2023-06-22T10:34:18;20.83;;;8.93;;
37873;SDS011;23709;48.078;11.684;2023-06-22T10:36:51;23.70;;;8.93;;
37873;SDS011;23709;48.078;11.684;2023-06-22T10:39:23;24.15;;;10.18;;
37873;SDS011;23709;48.078;11.684;2023-06-22T10:41:55;30.45;;;9.43;;
37873;SDS011;23709;48.078;11.684;2023-06-22T10:44:27;18.27;;;8.70;;
37873;SDS011;23709;48.078;11.684;2023-06-22T10:46:59;17.92;;;8.80;;
37873;SDS011;23709;48.078;11.684;2023-06-22T10:49:31;18.65;;;8.98;;
37873;SDS011;23709;48.078;11.684;2023-06-22T10:52:05;21.98;;;9.40;;
37873;SDS011;23709;48.078;11.684;2023-06-22T10:54:39;21.65;;;9.02;;
37873;SDS011;23709;48.078;11.684;2023-06-22T10:57:11;15.05;;;9.05;;
37873;SDS011;23709;48.078;11.684;2023-06-22T10:59:45;19.73;;;8.73;;
37873;SDS011;23709;48.078;11.684;2023-06-22T11:04:50;25.90;;;9.35;;
37873;SDS011;23709;48.078;11.684;2023-06-22T11:07:22;21.67;;;9.85;;
37873;SDS011;23709;48.078;11.684;2023-06-22T11:09:55;21.08;;;9.75;;
37873;SDS011;23709;48.078;11.684;2023-06-22T11:12:28;18.63;;;9.40;;
37873;SDS011;23709;48.078;11.684;2023-06-22T11:15:00;31.38;;;10.15;;
37873;SDS011;23709;48.078;11.684;2023-06-22T11:17:33;23.95;;;9.13;;
37873;SDS011;23709;48.078;11.684;2023-06-22T11:20:05;18.73;;;8.80;;
37873;SDS011;23709;48.078;11.684;2023-06-22T11:22:43;21.17;;;9.35;;
37873;SDS011;23709;48.078;11.684;2023-06-22T11:25:15;21.90;;;10.05;;
37873;SDS011;23709;48.078;11.684;2023-06-22T11:27:47;22.55;;;9.55;;
37873;SDS011;23709;48.078;11.684;2023-06-22T11:30:20;29.08;;;9.27;;
37873;SDS011;23709;48.078;11.684;2023-06-22T11:32:52;26.08;;;9.50;;
37873;SDS011;23709;48.078;11.684;2023-06-22T11:35:24;25.67;;;9.10;;
37873;SDS011;23709;48.078;11.684;2023-06-22T11:37:57;20.60;;;9.02;;
37873;SDS011;23709;48.078;11.684;2023-06-22T11:40:30;19.30;;;8.50;;
37873;SDS011;23709;48.078;11.684;2023-06-22T11:43:02;26.75;;;9.20;;
37873;SDS011;23709;48.078;11.684;2023-06-22T11:45:34;24.87;;;9.43;;
37873;SDS011;23709;48.078;11.684;2023-06-22T11:48:07;21.65;;;9.52;;
37873;SDS011;23709;48.078;11.684;2023-06-22T11:50:40;22.27;;;9.73;;
37873;SDS011;23709;48.078;11.684;2023-06-22T11:53:12;20.35;;;8.98;;
37873;SDS011;23709;48.078;11.684;2023-06-22T11:55:48;28.10;;;10.10;;
37873;SDS011;23709;48.078;11.684;2023-06-22T11:58:21;23.20;;;9.40;;
37873;SDS011;23709;48.078;11.684;2023-06-22T12:03:26;29.35;;;10.05;;
37873;SDS011;23709;48.078;11.684;2023-06-22T12:05:59;26.88;;;10.02;;
37873;SDS011;23709;48.078;11.684;2023-06-22T12:08:32;20.77;;;8.30;;
37873;SDS011;23709;48.078;11.684;2023-06-22T12:11:04;22.00;;;8.95;;
37873;SDS011;23709;48.078;11.684;2023-06-22T12:13:36;28.10;;;9.10;;
37873;SDS011;23709;48.078;11.684;2023-06-22T12:16:09;21.52;;;9.00;;
37873;SDS011;23709;48.078;11.684;2023-06-22T12:18:41;25.70;;;8.93;;
37873;SDS011;23709;48.078;11.684;2023-06-22T12:21:13;30.27;;;10.18;;
37873;SDS011;23709;48.078;11.684;2023-06-22T12:23:46;24.67;;;9.30;;
37873;SDS011;23709;48.078;11.684;2023-06-22T12:28:50;22.08;;;8.95;;
37873;SDS011;23709;48.078;11.684;2023-06-22T12:31:22;28.20;;;9.38;;
37873;SDS011;23709;48.078;11.684;2023-06-22T12:33:55;23.85;;;9.10;;
37873;SDS011;23709;48.078;11.684;2023-06-22T12:36:27;28.75;;;8.90;;
37873;SDS011;23709;48.078;11.684;2023-06-22T12:38:59;19.25;;;8.40;;
37873;SDS011;23709;48.078;11.684;2023-06-22T12:41:32;26.27;;;9.57;;
37873;SDS011;23709;48.078;11.684;2023-06-22T12:44:04;21.33;;;9.32;;
37873;SDS011;23709;48.078;11.684;2023-06-22T12:46:36;21.20;;;8.85;;
37873;SDS011;23709;48.078;11.684;2023-06-22T12:49:09;21.50;;;8.80;;
37873;SDS011;23709;48.078;11.684;2023-06-22T12:51:42;17.48;;;9.25;;
37873;SDS011;23709;48.078;11.684;2023-06-22T12:54:15;25.95;;;8.95;;
37873;SDS011;23709;48.078;11.684;2023-06-22T12:56:49;20.73;;;8.93;;
37873;SDS011;23709;48.078;11.684;2023-06-22T12:59:24;23.30;;;8.85;;
37873;SDS011;23709;48.078;11.684;2023-06-22T13:01:57;21.67;;;8.82;;
37873;SDS011;23709;48.078;11.684;2023-06-22T13:04:29;23.65;;;9.77;;
37873;SDS011;23709;48.078;11.684;2023-06-22T13:07:01;25.38;;;8.77;;
37873;SDS011;23709;48.078;11.684;2023-06-22T13:09:49;23.05;;;8.98;;
37873;SDS011;23709;48.078;11.684;2023-06-22T13:12:23;20.15;;;8.77;;
37873;SDS011;23709;48.078;11.684;2023-06-22T13:14:56;24.60;;;9.07;;
37873;SDS011;23709;48.078;11.684;2023-06-22T13:17:28;22.42;;;9.40;;
37873;SDS011;23709;48.078;11.684;2023-06-22T13:20:01;21.48;;;8.93;;
37873;SDS011;23709;48.078;11.684;2023-06-22T13:22:36;21.90;;;9.18;;
37873;SDS011;23709;48.078;11.684;2023-06-22T13:25:12;23.75;;;8.38;;
37873;SDS011;23709;48.078;11.684;2023-06-22T13:32:49;22.55;;;8.50;;
37873;SDS011;23709;48.078;11.684;2023-06-22T13:35:22;24.40;;;8.93;;
37873;SDS011;23709;48.078;11.684;2023-06-22T13:37:54;20.80;;;9.13;;
37873;SDS011;23709;48.078;11.684;2023-06-22T13:40:26;20.25;;;9.13;;
37873;SDS011;23709;48.078;11.684;2023-06-22T13:42:58;25.38;;;9.48;;
37873;SDS011;23709;48.078;11.684;2023-06-22T13:45:32;19.75;;;8.23;;
37873;SDS011;23709;48.078;11.684;2023-06-22T13:48:04;19.58;;;8.95;;
37873;SDS011;23709;48.078;11.684;2023-06-22T13:50:37;25.05;;;8.40;;
37873;SDS011;23709;48.078;11.684;2023-06-22T13:53:09;21.75;;;8.95;;
37873;SDS011;23709;48.078;11.684;2023-06-22T13:55:41;28.80;;;8.65;;
37873;SDS011;23709;48.078;11.684;2023-06-22T13:58:14;29.25;;;9.02;;
37873;SDS011;23709;48.078;11.684;2023-06-22T14:00:46;20.80;;;8.73;;
37873;SDS011;23709;48.078;11.684;2023-06-22T14:03:20;23.73;;;8.80;;
37873;SDS011;23709;48.078;11.684;2023-06-22T14:05:52;26.05;;;9.30;;
37873;SDS011;23709;48.078;11.684;2023-06-22T14:08:27;23.88;;;8.32;;
37873;SDS011;23709;48.078;11.684;2023-06-22T14:11:13;21.58;;;8.60;;
37873;SDS011;23709;48.078;11.684;2023-06-22T14:13:45;29.13;;;8.73;;
37873;SDS011;23709;48.078;11.684;2023-06-22T14:16:18;26.83;;;9.15;;
37873;SDS011;23709;48.078;11.684;2023-06-22T14:21:25;31.60;;;8.48;;
37873;SDS011;23709;48.078;11.684;2023-06-22T14:23:58;18.83;;;8.75;;
37873;SDS011;23709;48.078;11.684;2023-06-22T14:26:30;25.08;;;9.05;;
37873;SDS011;23709;48.078;11.684;2023-06-22T14:29:02;25.77;;;9.00;;
37873;SDS011;23709;48.078;11.684;2023-06-22T14:31:35;26.38;;;8.60;;
37873;SDS011;23709;48.078;11.684;2023-06-22T14:34:07;25.08;;;9.13;;
37873;SDS011;23709;48.078;11.684;2023-06-22T14:36:39;21.80;;;9.25;;
37873;SDS011;23709;48.078;11.684;2023-06-22T14:39:12;19.90;;;8.88;;
37873;SDS011;23709;48.078;11.684;2023-06-22T14:41:44;20.63;;;8.45;;
37873;SDS011;23709;48.078;11.684;2023-06-22T14:44:16;23.55;;;8.60;;
37873;SDS011;23709;48.078;11.684;2023-06-22T14:46:49;20.35;;;8.23;;
37873;SDS011;23709;48.078;11.684;2023-06-22T14:49:21;22.77;;;7.95;;
37873;SDS011;23709;48.078;11.684;2023-06-22T14:51:53;20.63;;;8.32;;
37873;SDS011;23709;48.078;11.684;2023-06-22T14:54:26;19.55;;;8.32;;
37873;SDS011;23709;48.078;11.684;2023-06-22T14:56:58;21.38;;;8.55;;
37873;SDS011;23709;48.078;11.684;2023-06-22T14:59:30;19.92;;;9.00;;
37873;SDS011;23709;48.078;11.684;2023-06-22T15:02:03;16.60;;;8.45;;
37873;SDS011;23709;48.078;11.684;2023-06-22T15:04:35;26.27;;;8.27;;
37873;SDS011;23709;48.078;11.684;2023-06-22T15:07:07;14.10;;;7.85;;
37873;SDS011;23709;48.078;11.684;2023-06-22T15:09:39;20.58;;;7.60;;
37873;SDS011;23709;48.078;11.684;2023-06-22T15:12:14;19.63;;;8.18;;
37873;SDS011;23709;48.078;11.684;2023-06-22T15:14:46;25.88;;;7.78;;
37873;SDS011;23709;48.078;11.684;2023-06-22T15:17:18;20.25;;;7.40;;
37873;SDS011;23709;48.078;11.684;2023-06-22T15:19:50;22.20;;;7.53;;
37873;SDS011;23709;48.078;11.684;2023-06-22T15:24:55;23.00;;;7.70;;
37873;SDS011;23709;48.078;11.684;2023-06-22T15:27:33;23.85;;;8.63;;
37873;SDS011;23709;48.078;11.684;2023-06-22T15:30:06;22.17;;;8.13;;
37873;SDS011;23709;48.078;11.684;2023-06-22T15:32:39;24.38;;;7.88;;
37873;SDS011;23709;48.078;11.684;2023-06-22T15:35:16;23.35;;;8.70;;
37873;SDS011;23709;48.078;11.684;2023-06-22T15:37:50;20.98;;;8.25;;
37873;SDS011;23709;48.078;11.684;2023-06-22T15:40:23;17.42;;;7.43;;
37873;SDS011;23709;48.078;11.684;2023-06-22T15:42:55;12.05;;;6.85;;
37873;SDS011;23709;48.078;11.684;2023-06-22T15:45:27;25.50;;;7.78;;
37873;SDS011;23709;48.078;11.684;2023-06-22T15:48:00;20.65;;;7.60;;